Página principal
METAR-TAF:

METAR-TAF

Aeroportos :

Bagdá, Iraque

Aeroporto Internacional de Bagdad

latitude: 33-15-45N, longitude: 44-14-04E, altura: 35 m

Observação actual do tempo

O boletim foi feito há 41 minutos, às 23:00 UTC
Vento 4 kt de nor-noroeste
Temperatura 17°C
Humidade 34%
Pressão 1016 hPa
Visibilidade: 7000 m

METAR: ORBI 192300Z 34004KT 7000 NSC 17/01 Q1016

Hora: 02:41 (23:41 UTC)

Previsão

O boletim foi feito há 1 hora e 41 minutos, às 22:00 UTC
Previsão válida de 20 às 00 UTC a 20 às 24 UTC
Vento 3 kt com direcção variável
Visibilidade 10 km ou mais
sem nuvens abaixo de 1500 metros e sem cumulonimbus

TAF: ORBI 192200Z 2000/2024 VRB03KT CAVOK

Observações e previsões do tempo de mais de 4000 aeroportos (mensagens METAR e TAF).

As estações disponíveis são os pontos amarelos e vermelhos sobre o mapa.

Mova o rato sobre o mapa para ver o nome da estação.

Depois clique no ponto para visualizar as observações e previsões meteorológicas.

Para alterar o mapa : clique nos botões verdes com uma cruz preta para aumentar o zoom; no botão verde com uma pitada de zoom; ou nas setas verdes para mapas adjacentes.


METAR-TAF: